Time;durP1;ratioP1;P1;durP2;ratioP2;P2;SDS_P1;SDS_P2;PMS_P1;PMS_P2;Temp;Humidity;BMP_temperature;BMP_pressure;BME280_temperature;BME280_humidity;BME280_pressure;Samples;Min_cycle;Max_cycle;Signal;HPM_P1;HPM_P2
2021/07/09 00:01:09;;;;;;;21.10;14.40;;;16.80;94.00;;;;;;5011235;28;20072;-50
2021/07/09 00:03:35;;;;;;;20.92;13.70;;;16.80;94.00;;;;;;5007204;28;20438;-52
2021/07/09 00:06:02;;;;;;;22.15;14.70;;;16.80;94.10;;;;;;5006708;28;20572;-54
2021/07/09 00:08:28;;;;;;;21.92;13.75;;;16.80;94.10;;;;;;5000958;28;20093;-52
2021/07/09 00:10:54;;;;;;;20.10;13.50;;;16.80;94.10;;;;;;5005641;28;20073;-54
2021/07/09 00:13:20;;;;;;;22.92;14.50;;;16.80;94.10;;;;;;5002543;28;20038;-53
2021/07/09 00:15:47;;;;;;;18.10;12.85;;;16.80;94.20;;;;;;5004667;28;20045;-52
2021/07/09 00:18:12;;;;;;;19.35;12.90;;;16.90;94.10;;;;;;5018574;28;20073;-49
2021/07/09 00:20:38;;;;;;;20.27;13.50;;;16.80;94.00;;;;;;5012695;28;20070;-52
2021/07/09 00:23:05;;;;;;;19.48;13.95;;;16.80;94.20;;;;;;4993944;28;20494;-51
2021/07/09 00:25:31;;;;;;;22.05;13.65;;;16.70;94.30;;;;;;4993153;28;20053;-52
2021/07/09 00:27:57;;;;;;;19.05;13.85;;;16.70;94.30;;;;;;5009468;28;20038;-52
2021/07/09 00:30:23;;;;;;;22.38;14.02;;;16.70;94.40;;;;;;5011463;28;20057;-50
2021/07/09 00:32:49;;;;;;;24.17;15.15;;;16.80;94.50;;;;;;4993883;28;20045;-51
2021/07/09 00:35:15;;;;;;;25.83;15.57;;;16.80;94.50;;;;;;5010645;28;20380;-53
2021/07/09 00:37:41;;;;;;;23.23;15.00;;;16.70;94.50;;;;;;5014026;28;20050;-54
2021/07/09 00:40:08;;;;;;;26.05;15.88;;;16.70;94.50;;;;;;5015127;28;20048;-55
2021/07/09 00:42:34;;;;;;;22.80;15.30;;;16.70;94.50;;;;;;5013374;28;20030;-54
2021/07/09 00:45:08;;;;;;;24.63;16.17;;;16.80;94.60;;;;;;5013182;28;20050;-52
2021/07/09 00:47:34;;;;;;;26.23;16.15;;;16.90;94.70;;;;;;5013494;28;20156;-52
2021/07/09 00:50:01;;;;;;;20.20;15.07;;;16.80;94.60;;;;;;5014861;28;20037;-51
2021/07/09 00:52:26;;;;;;;24.85;16.40;;;16.80;94.70;;;;;;4997587;28;20038;-53
2021/07/09 00:54:53;;;;;;;26.00;16.67;;;16.80;94.70;;;;;;5014065;28;20045;-51
2021/07/09 00:57:19;;;;;;;23.77;14.68;;;16.80;94.70;;;;;;4985286;28;20237;-52
2021/07/09 00:59:46;;;;;;;19.08;13.23;;;16.80;94.70;;;;;;5015060;28;20052;-50
2021/07/09 01:02:12;;;;;;;21.75;13.55;;;16.80;94.60;;;;;;5017925;28;20046;-52
2021/07/09 01:04:38;;;;;;;32.92;16.83;;;16.80;94.60;;;;;;5016151;28;20140;-49
2021/07/09 01:07:04;;;;;;;25.52;16.45;;;16.80;94.60;;;;;;5017438;28;20065;-49
2021/07/09 01:09:31;;;;;;;28.05;17.63;;;16.80;94.70;;;;;;5017119;28;20046;-53
2021/07/09 01:11:57;;;;;;;26.15;17.52;;;16.80;94.90;;;;;;5015965;28;20034;-49
2021/07/09 01:14:23;;;;;;;29.25;17.85;;;16.80;94.80;;;;;;5013826;28;20091;-54
2021/07/09 01:16:50;;;;;;;25.70;16.27;;;16.80;94.80;;;;;;5011462;28;20570;-53
2021/07/09 01:19:16;;;;;;;22.77;15.73;;;16.80;94.90;;;;;;5018120;28;20046;-50
2021/07/09 01:21:44;;;;;;;22.15;15.13;;;16.70;94.80;;;;;;5020009;28;20096;-51
2021/07/09 01:24:11;;;;;;;23.50;15.15;;;16.70;94.80;;;;;;5016791;28;20176;-49
2021/07/09 01:26:38;;;;;;;26.38;16.52;;;16.70;94.80;;;;;;5011282;28;20053;-51
2021/07/09 01:29:05;;;;;;;27.42;17.48;;;16.70;94.80;;;;;;5027580;28;20047;-53
2021/07/09 01:31:32;;;;;;;30.35;17.90;;;16.80;94.80;;;;;;5004226;28;20045;-53
2021/07/09 01:33:58;;;;;;;25.95;17.05;;;16.70;94.80;;;;;;5015422;28;20044;-53
2021/07/09 01:36:24;;;;;;;26.30;17.08;;;16.70;94.80;;;;;;5016093;28;20038;-53
2021/07/09 01:38:50;;;;;;;24.85;17.95;;;16.70;94.70;;;;;;5014396;28;20121;-54
2021/07/09 01:41:17;;;;;;;26.98;16.80;;;16.70;94.70;;;;;;5019347;28;20097;-53
2021/07/09 01:43:44;;;;;;;33.28;17.83;;;16.60;94.60;;;;;;5015094;28;20088;-54
2021/07/09 01:46:11;;;;;;;31.42;18.10;;;16.60;94.80;;;;;;4993610;28;20045;-54
2021/07/09 01:48:37;;;;;;;30.33;18.45;;;16.60;94.80;;;;;;5017800;28;20042;-52
2021/07/09 01:51:03;;;;;;;35.17;19.60;;;16.60;94.90;;;;;;5013546;28;20041;-54
2021/07/09 01:53:29;;;;;;;31.80;17.13;;;16.60;95.00;;;;;;5016944;28;20403;-51
2021/07/09 01:55:56;;;;;;;29.48;18.98;;;16.50;94.90;;;;;;5016061;28;20050;-52
2021/07/09 01:58:23;;;;;;;29.88;17.58;;;16.50;95.00;;;;;;4983272;28;20046;-51
2021/07/09 02:00:51;;;;;;;30.67;18.80;;;16.50;94.90;;;;;;5016797;28;20046;-52
2021/07/09 02:03:17;;;;;;;30.52;18.83;;;16.50;95.00;;;;;;5016001;28;20046;-52
2021/07/09 02:05:44;;;;;;;32.70;19.65;;;16.50;95.00;;;;;;5001646;28;20145;-51
2021/07/09 02:08:10;;;;;;;33.33;19.70;;;16.50;95.10;;;;;;5026032;28;20092;-52
2021/07/09 02:10:39;;;;;;;32.58;20.08;;;16.50;95.10;;;;;;5014877;28;20042;-51
2021/07/09 02:13:06;;;;;;;34.40;21.38;;;16.50;95.10;;;;;;5017489;28;20121;-53
2021/07/09 02:15:37;;;;;;;40.55;21.67;;;16.40;95.10;;;;;;5007048;28;20491;-51
2021/07/09 02:18:04;;;;;;;35.88;19.95;;;16.50;95.10;;;;;;5004009;28;20129;-54
2021/07/09 02:20:32;;;;;;;24.80;16.85;;;16.50;95.10;;;;;;5019776;28;20042;-54
2021/07/09 02:23:00;;;;;;;27.52;16.95;;;16.40;95.00;;;;;;5014612;28;20038;-55
2021/07/09 02:25:29;;;;;;;23.90;15.57;;;16.30;94.80;;;;;;4999161;28;20052;-51
2021/07/09 02:27:56;;;;;;;27.77;18.40;;;16.30;94.80;;;;;;4996034;28;20514;-50
2021/07/09 02:30:24;;;;;;;24.75;16.45;;;16.20;94.90;;;;;;5015693;28;20038;-49
2021/07/09 02:32:51;;;;;;;19.73;14.05;;;16.20;94.90;;;;;;5027869;28;20099;-50
2021/07/09 02:35:24;;;;;;;17.05;12.82;;;16.20;95.00;;;;;;5016577;28;20089;-52
2021/07/09 02:37:50;;;;;;;21.13;13.98;;;16.20;94.80;;;;;;5015712;28;20069;-53
2021/07/09 02:40:19;;;;;;;20.27;13.82;;;16.10;94.70;;;;;;5019320;28;20438;-53
2021/07/09 02:42:47;;;;;;;26.67;14.57;;;16.10;94.70;;;;;;5034448;28;20088;-53
2021/07/09 02:45:13;;;;;;;27.48;15.50;;;16.00;94.70;;;;;;5026719;28;20038;-52
2021/07/09 02:47:41;;;;;;;31.17;17.48;;;16.00;94.80;;;;;;5025635;28;20049;-51
2021/07/09 02:50:10;;;;;;;28.30;16.25;;;16.00;94.80;;;;;;5010609;28;20108;-49
2021/07/09 02:52:37;;;;;;;20.40;13.30;;;15.90;94.90;;;;;;5022686;28;20092;-49
2021/07/09 02:55:05;;;;;;;15.52;11.18;;;15.80;94.90;;;;;;5024458;28;20045;-51
2021/07/09 02:57:31;;;;;;;18.60;12.70;;;15.80;94.90;;;;;;5014625;28;20053;-51
2021/07/09 02:59:57;;;;;;;26.63;15.27;;;15.80;94.90;;;;;;5014146;28;20042;-51
2021/07/09 03:02:24;;;;;;;20.50;14.52;;;15.70;94.90;;;;;;4980803;28;20044;-51
2021/07/09 03:04:50;;;;;;;29.45;16.17;;;15.70;95.00;;;;;;5013068;28;20042;-53
2021/07/09 03:07:17;;;;;;;25.23;16.27;;;15.70;95.10;;;;;;5015465;28;20045;-55
2021/07/09 03:09:43;;;;;;;24.00;16.42;;;15.60;95.00;;;;;;5007208;28;20045;-54
2021/07/09 03:12:09;;;;;;;30.00;16.85;;;15.60;95.10;;;;;;5034695;28;20048;-55
2021/07/09 03:14:38;;;;;;;27.70;16.27;;;15.60;95.00;;;;;;5027543;28;20117;-52
2021/07/09 03:17:05;;;;;;;24.15;15.23;;;15.60;95.10;;;;;;5009088;28;20041;-54
2021/07/09 03:19:31;;;;;;;22.38;15.05;;;15.50;95.10;;;;;;5016495;28;20049;-51
2021/07/09 03:21:57;;;;;;;20.92;14.13;;;15.50;95.10;;;;;;5013209;28;20048;-52
2021/07/09 03:24:22;;;;;;;27.17;15.95;;;15.40;95.10;;;;;;5017708;28;20053;-53
2021/07/09 03:26:49;;;;;;;24.05;15.65;;;15.40;95.20;;;;;;5021385;28;20391;-52
2021/07/09 03:29:16;;;;;;;27.15;15.70;;;15.40;95.30;;;;;;5018246;28;20069;-52
2021/07/09 03:31:43;;;;;;;26.95;16.83;;;15.40;95.10;;;;;;5015503;28;20147;-50
2021/07/09 03:34:10;;;;;;;27.67;17.17;;;15.40;95.10;;;;;;5014812;28;20042;-53
2021/07/09 03:36:38;;;;;;;29.70;17.10;;;15.30;95.20;;;;;;5010843;28;20077;-51
2021/07/09 03:39:04;;;;;;;29.98;18.08;;;15.30;95.30;;;;;;5010803;28;20038;-50
2021/07/09 03:41:30;;;;;;;27.52;17.52;;;15.30;95.50;;;;;;5012893;28;20049;-50
2021/07/09 03:43:55;;;;;;;25.13;16.77;;;15.30;95.50;;;;;;5014371;28;20049;-53
2021/07/09 03:46:24;;;;;;;22.23;14.88;;;15.30;95.50;;;;;;5013005;28;20050;-53
2021/07/09 03:48:50;;;;;;;19.33;13.15;;;15.30;95.50;;;;;;5013167;28;20050;-52
2021/07/09 03:51:15;;;;;;;25.58;16.25;;;15.30;95.30;;;;;;5014464;28;20071;-55
2021/07/09 03:53:41;;;;;;;23.13;15.07;;;15.30;95.10;;;;;;5013496;28;20445;-52
2021/07/09 03:56:07;;;;;;;24.98;15.85;;;15.20;95.00;;;;;;5013147;28;20057;-51
2021/07/09 03:58:33;;;;;;;21.67;14.18;;;15.20;95.00;;;;;;5013648;28;20042;-49
2021/07/09 04:00:59;;;;;;;21.05;13.88;;;15.20;95.00;;;;;;5016569;28;20428;-53
2021/07/09 04:03:26;;;;;;;20.08;14.13;;;15.10;95.00;;;;;;5016413;28;20103;-52
2021/07/09 04:05:52;;;;;;;29.95;14.77;;;15.10;94.90;;;;;;5010595;28;20046;-54
2021/07/09 04:08:18;;;;;;;18.98;13.82;;;15.10;94.90;;;;;;5002988;28;20048;-53
2021/07/09 04:10:44;;;;;;;17.63;13.15;;;15.00;94.90;;;;;;5028360;28;20077;-53
2021/07/09 04:13:09;;;;;;;17.88;13.23;;;15.00;95.00;;;;;;5025261;28;20034;-53
2021/07/09 04:15:36;;;;;;;20.15;13.73;;;14.90;95.00;;;;;;5015703;28;20049;-52
2021/07/09 04:18:03;;;;;;;20.73;13.60;;;14.90;95.10;;;;;;4986882;28;20049;-52
2021/07/09 04:20:29;;;;;;;17.13;13.43;;;15.00;95.30;;;;;;5019382;28;20054;-51
2021/07/09 04:22:56;;;;;;;16.45;12.52;;;14.90;95.30;;;;;;5015244;28;20513;-49
2021/07/09 04:25:22;;;;;;;14.10;11.30;;;14.90;95.30;;;;;;5017250;28;20057;-50
2021/07/09 04:27:47;;;;;;;12.85;10.50;;;14.90;95.30;;;;;;5019378;28;20722;-49
2021/07/09 04:30:14;;;;;;;13.20;10.57;;;14.90;95.30;;;;;;5017397;28;20037;-54
2021/07/09 04:32:40;;;;;;;12.85;10.32;;;14.90;95.30;;;;;;5012550;28;20070;-51
2021/07/09 04:35:07;;;;;;;20.63;13.93;;;14.90;95.20;;;;;;5022931;28;20072;-54
2021/07/09 04:37:32;;;;;;;21.45;14.95;;;15.00;95.40;;;;;;5036648;28;20133;-50
2021/07/09 04:39:59;;;;;;;23.95;16.40;;;15.00;95.50;;;;;;5018939;28;20073;-52
2021/07/09 04:42:25;;;;;;;26.52;16.67;;;15.10;95.80;;;;;;5015863;28;20069;-51
2021/07/09 04:44:51;;;;;;;27.60;17.85;;;15.20;96.00;;;;;;5017148;28;20042;-52
2021/07/09 04:47:17;;;;;;;25.48;16.80;;;15.30;95.80;;;;;;5029139;28;20060;-55
2021/07/09 04:49:43;;;;;;;27.23;17.67;;;15.30;95.80;;;;;;5029524;28;20506;-56
2021/07/09 04:52:09;;;;;;;23.40;16.52;;;15.30;95.90;;;;;;5029392;28;20077;-52
2021/07/09 04:54:41;;;;;;;24.17;15.48;;;15.30;95.70;;;;;;5012671;28;20053;-50
2021/07/09 04:57:07;;;;;;;25.27;16.25;;;15.30;95.70;;;;;;5031630;28;20041;-49
2021/07/09 04:59:33;;;;;;;27.42;17.05;;;15.30;95.60;;;;;;5022728;28;20049;-52
2021/07/09 05:01:58;;;;;;;24.33;16.45;;;15.30;95.60;;;;;;5025850;28;20062;-52
2021/07/09 05:04:25;;;;;;;21.80;15.63;;;15.30;95.50;;;;;;5013917;28;20323;-53
2021/07/09 05:06:50;;;;;;;23.00;15.88;;;15.30;95.60;;;;;;5014974;28;20137;-52
2021/07/09 05:09:16;;;;;;;23.02;16.25;;;15.50;95.60;;;;;;5014745;28;20050;-53
2021/07/09 05:11:50;;;;;;;24.52;16.25;;;15.60;95.60;;;;;;5014883;28;20081;-51
2021/07/09 05:14:16;;;;;;;27.50;17.92;;;15.70;95.50;;;;;;5013615;28;20050;-50
2021/07/09 05:16:45;;;;;;;25.30;16.73;;;15.80;95.50;;;;;;5012677;28;20225;-54
2021/07/09 05:19:12;;;;;;;26.75;18.92;;;16.00;95.40;;;;;;5015606;28;20054;-50
2021/07/09 05:21:38;;;;;;;26.35;18.98;;;16.20;95.30;;;;;;5024619;28;20037;-53
2021/07/09 05:24:08;;;;;;;24.33;17.63;;;16.40;94.90;;;;;;5019971;28;20042;-54
2021/07/09 05:26:35;;;;;;;29.45;18.38;;;16.50;94.80;;;;;;5013601;28;20149;-54
2021/07/09 05:29:02;;;;;;;25.02;18.75;;;16.60;94.60;;;;;;5019335;28;20050;-49
2021/07/09 05:31:28;;;;;;;26.83;18.40;;;16.80;94.20;;;;;;5013847;28;20070;-49
2021/07/09 05:33:54;;;;;;;27.00;17.88;;;16.90;93.90;;;;;;5010302;28;20050;-49
2021/07/09 05:36:21;;;;;;;27.95;18.00;;;17.00;94.00;;;;;;5009105;28;20103;-51
2021/07/09 05:38:47;;;;;;;25.33;18.58;;;17.00;93.90;;;;;;5000863;28;20042;-52
2021/07/09 05:41:13;;;;;;;27.65;19.17;;;17.00;93.90;;;;;;5013357;28;20495;-51
2021/07/09 05:43:39;;;;;;;31.15;20.23;;;17.00;93.90;;;;;;5013214;28;20057;-49
2021/07/09 05:46:05;;;;;;;28.02;20.15;;;17.00;93.90;;;;;;5010869;28;20079;-50
2021/07/09 05:48:31;;;;;;;30.58;20.92;;;17.00;93.80;;;;;;5013055;28;20046;-53
2021/07/09 05:50:56;;;;;;;27.90;20.23;;;17.00;93.90;;;;;;5017695;28;20045;-54
2021/07/09 05:53:23;;;;;;;27.58;19.23;;;17.00;93.90;;;;;;5012744;28;20546;-55
2021/07/09 05:55:50;;;;;;;29.15;19.88;;;17.10;94.00;;;;;;4997257;28;20077;-52
2021/07/09 05:58:16;;;;;;;30.38;20.08;;;17.30;93.80;;;;;;5015046;28;20072;-53
2021/07/09 06:00:42;;;;;;;29.38;20.58;;;17.60;93.20;;;;;;5012485;28;20065;-53
2021/07/09 06:03:08;;;;;;;26.08;20.70;;;17.70;92.80;;;;;;5012478;28;20573;-52
2021/07/09 06:05:35;;;;;;;26.67;19.48;;;17.70;92.80;;;;;;4974185;28;1005690;-55
2021/07/09 06:08:09;;;;;;;30.75;20.17;;;17.60;92.90;;;;;;4992039;28;20092;-53
2021/07/09 06:10:36;;;;;;;27.88;19.70;;;17.60;93.00;;;;;;5005720;28;20049;-50
2021/07/09 06:13:06;;;;;;;27.70;19.95;;;17.70;93.10;;;;;;5019634;28;20033;-52
2021/07/09 06:15:32;;;;;;;29.27;19.77;;;17.70;93.20;;;;;;5014694;28;20136;-49
2021/07/09 06:17:58;;;;;;;30.38;20.45;;;17.70;93.20;;;;;;5015452;28;20061;-49
2021/07/09 06:20:25;;;;;;;28.42;20.65;;;17.60;93.20;;;;;;5001568;28;20116;-52
2021/07/09 06:22:50;;;;;;;29.60;20.90;;;17.60;93.30;;;;;;5013365;28;20125;-52
2021/07/09 06:25:16;;;;;;;34.28;21.48;;;17.60;93.50;;;;;;5014858;28;20100;-50
2021/07/09 06:27:43;;;;;;;31.88;21.13;;;17.60;93.40;;;;;;5009431;28;20033;-53
2021/07/09 06:30:10;;;;;;;30.90;21.27;;;17.60;93.30;;;;;;5013578;28;20049;-54
2021/07/09 06:32:37;;;;;;;31.13;21.45;;;17.60;93.40;;;;;;5014366;28;20504;-55
2021/07/09 06:35:04;;;;;;;35.45;22.73;;;17.70;93.60;;;;;;5012719;28;20500;-49
2021/07/09 06:37:30;;;;;;;33.63;22.35;;;17.70;93.60;;;;;;5013111;28;20045;-53
2021/07/09 06:39:56;;;;;;;33.75;22.27;;;17.70;93.60;;;;;;5009017;28;20471;-50
2021/07/09 06:42:22;;;;;;;39.47;23.92;;;17.80;93.60;;;;;;5010849;28;20403;-49
2021/07/09 06:44:47;;;;;;;40.60;24.80;;;17.80;93.50;;;;;;5013430;28;20037;-54
2021/07/09 06:47:13;;;;;;;38.67;23.85;;;17.80;93.50;;;;;;5014156;28;20132;-53
2021/07/09 06:49:39;;;;;;;40.58;24.45;;;17.80;93.50;;;;;;5005027;28;20061;-48
2021/07/09 06:52:05;;;;;;;41.55;24.50;;;17.80;93.40;;;;;;5010007;28;20066;-49
2021/07/09 06:54:31;;;;;;;38.28;24.23;;;17.90;93.40;;;;;;5009613;28;20046;-53
2021/07/09 06:56:56;;;;;;;39.08;23.83;;;17.90;93.30;;;;;;5013046;28;20462;-53
2021/07/09 06:59:22;;;;;;;37.13;23.60;;;17.80;93.10;;;;;;5012113;28;20406;-53
2021/07/09 07:01:49;;;;;;;41.45;24.67;;;17.90;93.20;;;;;;5012545;28;20069;-51
2021/07/09 07:04:15;;;;;;;32.90;20.90;;;17.90;93.10;;;;;;5012958;28;20045;-51
2021/07/09 07:06:41;;;;;;;32.55;20.40;;;18.00;93.00;;;;;;5010728;28;20064;-53
2021/07/09 07:09:07;;;;;;;34.60;21.10;;;18.10;92.70;;;;;;5012667;28;20680;-51
2021/07/09 07:11:34;;;;;;;32.17;20.10;;;18.20;92.70;;;;;;5012931;28;20435;-54
2021/07/09 07:13:59;;;;;;;29.50;20.63;;;18.20;92.50;;;;;;5009821;28;20125;-53
2021/07/09 07:16:25;;;;;;;31.77;20.95;;;18.20;92.10;;;;;;4993878;28;20129;-54
2021/07/09 07:18:51;;;;;;;30.60;20.42;;;18.30;92.40;;;;;;5012095;28;20044;-54
2021/07/09 07:21:17;;;;;;;27.33;19.52;;;18.30;92.30;;;;;;5004812;28;20037;-54
2021/07/09 07:23:43;;;;;;;29.40;18.85;;;18.30;92.40;;;;;;4997133;28;20081;-54
2021/07/09 07:26:09;;;;;;;28.33;18.55;;;18.30;92.60;;;;;;5004273;28;20506;-55
2021/07/09 07:28:34;;;;;;;29.48;20.08;;;18.20;92.40;;;;;;5008450;28;20038;-55
2021/07/09 07:31:00;;;;;;;27.15;18.23;;;18.20;92.30;;;;;;5012767;28;20049;-55
2021/07/09 07:33:26;;;;;;;30.17;19.05;;;18.10;92.30;;;;;;5012284;28;20057;-54
2021/07/09 07:35:52;;;;;;;27.85;18.63;;;18.10;92.30;;;;;;5009256;28;20085;-53
2021/07/09 07:38:18;;;;;;;25.55;18.30;;;18.10;92.30;;;;;;5008824;28;20054;-52
2021/07/09 07:40:44;;;;;;;23.95;17.70;;;18.30;92.10;;;;;;4993655;28;20042;-55
2021/07/09 07:43:10;;;;;;;22.70;17.70;;;18.40;91.60;;;;;;5009101;28;20045;-55
2021/07/09 07:45:35;;;;;;;24.70;16.90;;;18.60;91.30;;;;;;4998677;28;20510;-52
2021/07/09 07:48:03;;;;;;;23.58;16.40;;;18.90;91.10;;;;;;5012520;28;20088;-51
2021/07/09 07:50:29;;;;;;;22.65;17.17;;;19.10;90.20;;;;;;5011200;28;20096;-55
2021/07/09 07:52:55;;;;;;;20.20;15.38;;;19.20;90.20;;;;;;5009688;28;20115;-54
2021/07/09 07:55:21;;;;;;;23.55;16.02;;;19.30;90.00;;;;;;5010583;28;20042;-54
2021/07/09 07:57:47;;;;;;;20.30;14.60;;;19.40;89.30;;;;;;5010154;28;20295;-55
2021/07/09 08:00:13;;;;;;;20.45;13.90;;;19.40;88.30;;;;;;5010640;28;20125;-52
2021/07/09 08:02:39;;;;;;;18.05;13.25;;;19.50;88.80;;;;;;5009484;28;20483;-52
2021/07/09 08:05:07;;;;;;;17.85;11.90;;;19.60;89.10;;;;;;5000069;28;20418;-53
2021/07/09 08:07:35;;;;;;;16.52;11.63;;;19.60;87.70;;;;;;5006292;28;20046;-55
2021/07/09 08:10:03;;;;;;;18.55;12.25;;;19.50;87.20;;;;;;5009478;28;20045;-55
2021/07/09 08:12:30;;;;;;;17.55;11.82;;;19.50;87.30;;;;;;5009580;28;20045;-55
2021/07/09 08:14:57;;;;;;;17.23;12.43;;;19.60;87.20;;;;;;4992220;28;20041;-54
2021/07/09 08:17:23;;;;;;;13.10;10.10;;;19.80;87.60;;;;;;5011334;28;20045;-55
2021/07/09 08:19:57;;;;;;;15.25;11.45;;;19.90;83.40;;;;;;5008817;28;20516;-54
2021/07/09 08:22:23;;;;;;;16.65;11.85;;;19.90;83.10;;;;;;5010828;28;21919;-55
2021/07/09 08:24:49;;;;;;;17.73;12.88;;;19.80;84.00;;;;;;5017141;28;20051;-55
2021/07/09 08:27:16;;;;;;;17.30;12.35;;;19.80;85.10;;;;;;5014867;28;20054;-54
2021/07/09 08:29:42;;;;;;;13.52;10.18;;;19.90;85.30;;;;;;4995246;28;20659;-52
2021/07/09 08:32:09;;;;;;;15.00;10.20;;;19.90;83.50;;;;;;5012848;28;20049;-54
2021/07/09 08:34:37;;;;;;;13.95;9.90;;;19.90;84.20;;;;;;5023334;28;20041;-54
2021/07/09 08:37:03;;;;;;;14.38;10.20;;;19.90;83.70;;;;;;4996411;28;20076;-55
2021/07/09 08:39:30;;;;;;;13.93;9.60;;;20.00;83.70;;;;;;5011266;28;20585;-54
2021/07/09 08:41:56;;;;;;;13.25;9.75;;;20.10;83.40;;;;;;4992824;28;20066;-54
2021/07/09 08:44:22;;;;;;;14.68;10.32;;;20.10;82.90;;;;;;5009617;28;20050;-54
2021/07/09 08:46:49;;;;;;;12.65;9.02;;;20.20;82.60;;;;;;5010489;28;20041;-54
2021/07/09 08:49:16;;;;;;;13.85;9.82;;;20.20;81.80;;;;;;5009898;28;20031;-54
2021/07/09 08:51:43;;;;;;;11.77;9.52;;;20.20;81.40;;;;;;5010404;28;20042;-54
2021/07/09 08:54:13;;;;;;;10.52;8.18;;;20.20;81.80;;;;;;5009531;28;20042;-52
2021/07/09 08:56:40;;;;;;;10.00;8.25;;;20.10;81.80;;;;;;5010185;28;20100;-51
2021/07/09 08:59:06;;;;;;;12.60;8.82;;;20.00;81.70;;;;;;5012532;28;20038;-51
2021/07/09 09:01:54;;;;;;;11.95;8.23;;;19.80;81.80;;;;;;5013769;28;20037;-51
2021/07/09 09:04:34;;;;;;;11.10;8.40;;;19.70;82.10;;;;;;5009590;28;20034;-53
2021/07/09 09:07:13;;;;;;;13.77;8.85;;;19.60;83.20;;;;;;5012849;28;20045;-53
2021/07/09 09:09:44;;;;;;;11.13;8.45;;;19.70;83.60;;;;;;5013090;28;20141;-55
2021/07/09 09:12:16;;;;;;;11.93;8.55;;;19.90;82.80;;;;;;5012599;28;20069;-51
2021/07/09 09:14:44;;;;;;;11.98;7.90;;;20.10;81.70;;;;;;5012320;28;20038;-51
2021/07/09 09:17:28;;;;;;;11.27;7.47;;;20.20;78.50;;;;;;5011604;28;20038;-52
2021/07/09 09:20:07;;;;;;;10.75;7.95;;;20.10;78.00;;;;;;5009514;28;20050;-52
2021/07/09 09:22:38;;;;;;;10.50;8.13;;;20.10;79.70;;;;;;5010261;28;20053;-54
2021/07/09 09:25:05;;;;;;;9.17;7.47;;;20.00;79.70;;;;;;5013033;28;20057;-54
2021/07/09 09:27:31;;;;;;;11.20;7.70;;;20.00;79.90;;;;;;5012979;28;20045;-54
2021/07/09 09:30:12;;;;;;;11.90;8.70;;;20.10;78.00;;;;;;5012399;28;20096;-54
2021/07/09 09:32:48;;;;;;;12.73;8.30;;;20.30;75.60;;;;;;5012846;28;20053;-53
2021/07/09 09:35:29;;;;;;;11.57;8.50;;;20.30;76.60;;;;;;5011780;28;20037;-52
2021/07/09 09:38:01;;;;;;;10.07;7.15;;;20.30;77.80;;;;;;5013606;28;20054;-53
2021/07/09 09:40:28;;;;;;;8.93;7.20;;;20.40;78.20;;;;;;5012622;28;20426;-54
2021/07/09 09:42:54;;;;;;;9.75;7.82;;;20.50;78.00;;;;;;5010263;28;20131;-55
2021/07/09 09:45:22;;;;;;;10.45;7.55;;;20.50;75.20;;;;;;5010030;28;20038;-53
2021/07/09 09:47:49;;;;;;;9.90;6.63;;;20.50;75.40;;;;;;5010595;28;20034;-53
2021/07/09 09:50:18;;;;;;;8.82;6.88;;;20.50;76.30;;;;;;5007994;28;20046;-54
2021/07/09 09:52:43;;;;;;;9.98;6.57;;;20.50;75.90;;;;;;5010661;28;20041;-54
2021/07/09 09:55:19;;;;;;;10.40;6.93;;;20.60;76.20;;;;;;5004172;28;20042;-54
2021/07/09 09:57:46;;;;;;;7.70;6.20;;;20.70;75.30;;;;;;5007141;28;20514;-54
2021/07/09 10:00:21;;;;;;;7.72;5.97;;;20.90;76.10;;;;;;5012315;28;20513;-54
2021/07/09 10:02:48;;;;;;;8.45;6.20;;;21.10;74.80;;;;;;5010756;28;20045;-54
2021/07/09 10:05:14;;;;;;;8.27;5.72;;;21.20;74.50;;;;;;5002335;28;20061;-54
2021/07/09 10:07:40;;;;;;;10.10;6.07;;;21.50;74.30;;;;;;5013338;28;20042;-53
2021/07/09 10:10:08;;;;;;;7.70;5.90;;;21.60;73.90;;;;;;5003796;28;20050;-53
2021/07/09 10:12:38;;;;;;;9.05;6.93;;;21.70;73.60;;;;;;5006944;28;20060;-54
2021/07/09 10:15:05;;;;;;;11.38;7.43;;;21.90;72.90;;;;;;5010609;28;20308;-54
2021/07/09 10:17:31;;;;;;;9.95;6.65;;;22.00;72.70;;;;;;5011348;28;20044;-53
2021/07/09 10:19:59;;;;;;;8.48;6.78;;;22.00;72.00;;;;;;5012129;28;20487;-53
2021/07/09 10:22:25;;;;;;;8.88;5.63;;;22.00;72.10;;;;;;5008190;28;20033;-55
2021/07/09 10:24:53;;;;;;;7.85;6.05;;;22.00;72.90;;;;;;5020008;28;20048;-53
2021/07/09 10:27:24;;;;;;;7.85;5.90;;;22.10;72.20;;;;;;5010283;28;20068;-54
2021/07/09 10:29:53;;;;;;;7.45;6.00;;;22.10;72.00;;;;;;5011763;28;20105;-54
2021/07/09 10:32:37;;;;;;;9.38;6.43;;;22.20;73.00;;;;;;5012246;28;20615;-55
2021/07/09 10:35:10;;;;;;;9.85;5.00;;;22.30;71.60;;;;;;5017868;28;20049;-54
2021/07/09 10:37:37;;;;;;;6.35;4.63;;;22.30;71.00;;;;;;5018938;28;20046;-55
2021/07/09 10:40:09;;;;;;;8.07;5.10;;;22.40;69.40;;;;;;5021314;28;20057;-54
2021/07/09 10:42:42;;;;;;;;;;;22.40;68.20;;;;;;5015417;28;20121;-53
2021/07/09 10:45:28;;;;;;;7.68;5.47;;;22.60;68.70;;;;;;4993043;28;19922;-54
2021/07/09 10:48:12;;;;;;;6.43;4.57;;;22.70;68.70;;;;;;5011940;28;20052;-54
2021/07/09 10:50:51;;;;;;;7.85;4.70;;;22.90;67.90;;;;;;5016490;28;20061;-53
2021/07/09 10:53:18;;;;;;;6.53;4.55;;;22.90;68.00;;;;;;5020950;28;20736;-55
2021/07/09 10:55:57;;;;;;;7.05;5.40;;;22.90;68.30;;;;;;5016672;28;20564;-55
2021/07/09 10:58:25;;;;;;;8.75;4.38;;;22.90;66.50;;;;;;5018098;28;20525;-53
2021/07/09 11:01:13;;;;;;;8.50;4.70;;;23.00;67.40;;;;;;5014993;28;20049;-54
2021/07/09 11:03:43;;;;;;;6.10;4.20;;;23.10;65.60;;;;;;5013914;28;20034;-54
2021/07/09 11:06:14;;;;;;;6.60;3.80;;;23.20;66.50;;;;;;5010554;28;20037;-55
2021/07/09 11:08:50;;;;;;;7.45;4.60;;;23.20;65.90;;;;;;5013204;28;20050;-54
2021/07/09 11:11:33;;;;;;;8.05;5.28;;;23.20;66.20;;;;;;5011889;28;20096;-54
2021/07/09 11:14:13;;;;;;;6.95;4.85;;;23.00;65.20;;;;;;5008335;28;20041;-54
2021/07/09 11:16:47;;;;;;;6.63;4.28;;;23.00;66.40;;;;;;5000751;28;20041;-55
2021/07/09 11:19:17;;;;;;;4.60;3.47;;;23.00;65.60;;;;;;5010760;28;20069;-54
2021/07/09 11:21:44;;;;;;;6.63;4.10;;;23.20;65.80;;;;;;5017639;28;20087;-51
2021/07/09 11:24:22;;;;;;;6.00;3.85;;;23.30;65.80;;;;;;5016330;28;20029;-55
2021/07/09 11:26:51;;;;;;;5.47;4.45;;;23.30;65.60;;;;;;5011758;28;20534;-55
2021/07/09 11:29:25;;;;;;;6.50;4.82;;;23.40;66.00;;;;;;5012751;28;20487;-55
2021/07/09 11:31:52;;;;;;;5.40;3.88;;;23.50;66.40;;;;;;5000556;28;20129;-51
2021/07/09 11:34:22;;;;;;;6.07;4.13;;;23.60;66.20;;;;;;5022445;28;20144;-51
2021/07/09 11:36:52;;;;;;;6.90;4.18;;;23.60;66.10;;;;;;5009912;28;20042;-55
2021/07/09 11:39:18;;;;;;;5.68;3.70;;;23.40;63.50;;;;;;5013037;28;20037;-55
2021/07/09 11:41:54;;;;;;;4.82;4.00;;;23.30;64.60;;;;;;5001475;28;20044;-56
2021/07/09 11:44:26;;;;;;;5.00;3.70;;;23.10;62.20;;;;;;5008354;28;20085;-54
2021/07/09 11:46:55;;;;;;;4.63;3.63;;;23.10;63.40;;;;;;5006969;28;20045;-56
2021/07/09 11:49:29;;;;;;;18.13;4.03;;;23.00;64.30;;;;;;5008768;28;20735;-55
2021/07/09 11:52:05;;;;;;;5.28;3.80;;;22.90;65.10;;;;;;5010206;28;20042;-56
2021/07/09 11:54:37;;;;;;;5.57;3.72;;;23.10;65.60;;;;;;5009691;28;20176;-56
2021/07/09 11:57:15;;;;;;;5.75;3.92;;;23.10;65.70;;;;;;4999671;28;20383;-56
2021/07/09 11:59:43;;;;;;;4.53;3.65;;;22.90;64.50;;;;;;5010090;28;20087;-54
2021/07/09 12:02:14;;;;;;;6.32;3.67;;;22.70;65.70;;;;;;5004727;28;20407;-53
2021/07/09 12:04:46;;;;;;;4.68;3.50;;;22.60;65.50;;;;;;5006983;28;20038;-55
2021/07/09 12:07:36;;;;;;;6.43;4.40;;;22.70;65.50;;;;;;5007820;28;20056;-55
2021/07/09 12:10:13;;;;;;;4.90;3.90;;;22.80;65.70;;;;;;5006327;28;20037;-55
2021/07/09 12:12:51;;;;;;;5.22;3.90;;;23.00;65.40;;;;;;5005300;28;20406;-55
2021/07/09 12:15:25;;;;;;;5.80;4.07;;;23.10;64.30;;;;;;5008457;28;20649;-54
2021/07/09 12:17:58;;;;;;;5.28;3.90;;;23.10;64.60;;;;;;5010120;28;20049;-56
2021/07/09 12:20:37;;;;;;;6.90;4.38;;;23.20;65.30;;;;;;5006722;28;20149;-55
2021/07/09 12:23:11;;;;;;;5.57;4.25;;;23.20;64.00;;;;;;5007330;28;20046;-51
2021/07/09 12:25:42;;;;;;;6.90;4.25;;;23.10;63.40;;;;;;5008434;28;20061;-56
2021/07/09 12:28:14;;;;;;;6.32;4.13;;;23.10;64.90;;;;;;5003832;28;20046;-56
2021/07/09 12:30:48;;;;;;;6.15;4.22;;;23.10;64.60;;;;;;5015970;28;20068;-54
2021/07/09 12:33:28;;;;;;;5.13;3.60;;;23.20;61.70;;;;;;5012944;28;20050;-54
2021/07/09 12:36:17;;;;;;;6.25;3.60;;;23.30;63.60;;;;;;5006547;28;20049;-55
2021/07/09 12:38:54;;;;;;;5.40;3.70;;;23.40;63.20;;;;;;5014883;28;20453;-55